ADDS METAR Data INFO
IDs: Format: Raw Decoded Include TAF

Data at: 0858 UTC 19 Jun 2018

KEQY 190853Z AUTO 25004KT 9SM CLR 23/21 A3000 RMK AO2 SLP155 T02280206 55003
KEQY 190753Z AUTO 24005KT 9SM CLR 23/21 A3000 RMK AO2 SLP154 T02280206
KEQY 190653Z AUTO 23004KT 10SM CLR 24/21 A3001 RMK AO2 SLP156 T02390206
KEQY 190553Z AUTO 22006KT 10SM CLR 24/21 A3001 RMK AO2 SLP157 T02390211 10300 20239 58006
KEQY 190453Z AUTO 24005KT 10SM CLR 25/21 A3002 RMK AO2 SLP161 T02500211 403560217
KEQY 190353Z AUTO 21003KT 10SM CLR 25/21 A3003 RMK AO2 SLP162 T02500211
KEQY 190253Z AUTO 20004KT 10SM CLR 26/21 A3003 RMK AO2 SLP163 T02610211 53004
KEQY 190153Z AUTO 23003KT 10SM CLR 27/21 A3002 RMK AO2 SLP161 T02720211
KEQY 190053Z AUTO 21003KT 10SM CLR 28/22 A3002 RMK AO2 SLP160 T02830217
KEQY 182353Z AUTO 22004KT 10SM CLR 30/21 A3002 RMK AO2 SLP159 T03000211 10356 20294 55004
KEQY 182253Z AUTO 27006KT 10SM CLR 33/19 A3001 RMK AO2 SLP158 T03330194
KEQY 182153Z AUTO 26006KT 10SM CLR 34/19 A3002 RMK AO2 SLP162 T03440194
KEQY 182053Z AUTO 28007KT 10SM CLR 34/19 A3003 RMK AO2 SLP163 T03390189 56021
KEQY 181953Z AUTO 24006KT 10SM CLR 33/18 A3005 RMK AO2 SLP171 T03330178
KEQY 181853Z AUTO 24009KT 10SM CLR 35/19 A3006 RMK AO2 LTG DSNT NE AND E SLP174 T03500194
KEQY 181753Z AUTO 25005KT 10SM CLR 34/21 A3009 RMK AO2 SLP183 T03440206 10350 20250 58009
KEQY 181653Z AUTO 24007KT 10SM CLR 33/21 A3010 RMK AO2 SLP188 T03330211
KEQY 181553Z AUTO 27006KT 10SM CLR 33/21 A3012 RMK AO2 SLP192 T03280211
KEQY 181453Z AUTO 25009KT 10SM CLR 32/22 A3012 RMK AO2 SLP193 T03170217 50000
KEQY 181353Z AUTO 26008KT 10SM CLR 29/22 A3012 RMK AO2 SLP195 T02940217
KEQY 181253Z AUTO VRB06KT 10SM CLR 28/22 A3013 RMK AO2 SLP197 T02780217
KEQY 181153Z AUTO 24006KT 8SM CLR 25/22 A3012 RMK AO2 SLP194 T02500217 10250 20217 51005
KEQY 181053Z AUTO 23004KT 5SM BR CLR 23/21 A3012 RMK AO2 SLP195 T02280211
KEQY 180953Z AUTO 22003KT 7SM CLR 22/21 A3012 RMK AO2 SLP193 T02220211
KEQY 180853Z AUTO 25004KT 8SM CLR 23/21 A3010 RMK AO2 SLP189 T02280206 55002
KEQY 180753Z AUTO 23005KT 10SM CLR 23/21 A3010 RMK AO2 SLP187 T02280206
KEQY 180653Z AUTO 22006KT 10SM CLR 24/21 A3011 RMK AO2 SLP189 T02390206
KEQY 180553Z AUTO 22006KT 10SM CLR 24/21 A3011 RMK AO2 SLP190 T02440206 10306 20239 58003
KEQY 180453Z AUTO 20004KT 10SM CLR 24/19 A3011 RMK AO2 SLP193 T02440194 403500211
KEQY 180353Z AUTO 23005KT 10SM CLR 24/19 A3012 RMK AO2 SLP193 T02440194
KEQY 180253Z AUTO 23004KT 10SM FEW050 26/19 A3012 RMK AO2 SLP194 T02560194 52017
KEQY 180153Z AUTO 21005KT 10SM FEW060 27/20 A3011 RMK AO2 SLP190 T02720200
KEQY 180053Z AUTO 21005KT 10SM CLR 28/21 A3008 RMK AO2 SLP181 T02830206
KEQY 172353Z AUTO 19005KT 10SM CLR 30/21 A3007 RMK AO2 SLP178 T03000206 10350 20300 53000
KEQY 172253Z AUTO VRB05KT 10SM FEW060 31/21 A3006 RMK AO2 LTG DSNT SW SLP176 T03110211
KEQY 172153Z AUTO 27005KT 10SM CLR 34/19 A3006 RMK AO2 SLP175 T03390194